Time;durP1;ratioP1;P1;durP2;ratioP2;P2;SDS_P1;SDS_P2;PMS_P1;PMS_P2;Temp;Humidity;BMP_temperature;BMP_pressure;BME280_temperature;BME280_humidity;BME280_pressure;Samples;Min_cycle;Max_cycle;Signal;HPM_P1;HPM_P2
2021/01/21 00:02:12;;;;;;;90.87;36.75;;;;;;;-0.84;82.70;98140.75;2286229;77;21151;-63
2021/01/21 00:05:13;;;;;;;88.92;34.67;;;;;;;-0.87;82.76;98137.36;2271391;77;21265;-63
2021/01/21 00:08:14;;;;;;;89.45;36.50;;;;;;;-0.91;82.70;98140.89;2235529;77;21264;-63
2021/01/21 00:11:15;;;;;;;82.65;35.58;;;;;;;-0.96;82.89;98134.16;2257869;77;21264;-63
2021/01/21 00:14:16;;;;;;;89.62;36.35;;;;;;;-0.97;82.86;98138.48;2269123;77;21285;-63
2021/01/21 00:17:17;;;;;;;83.78;35.83;;;;;;;-0.99;82.85;98142.84;2253248;78;21276;-63
2021/01/21 00:20:18;;;;;;;84.25;36.03;;;;;;;-0.99;82.91;98138.11;2259161;77;21713;-63
2021/01/21 00:23:20;;;;;;;82.05;34.35;;;;;;;-1.01;82.87;98131.72;2278621;77;21686;-64
2021/01/21 00:26:21;;;;;;;80.75;34.90;;;;;;;-1.01;82.78;98130.88;2265575;78;21721;-63
2021/01/21 00:29:22;;;;;;;83.85;33.92;;;;;;;-1.01;82.73;98128.30;2256879;77;21269;-64
2021/01/21 00:32:24;;;;;;;80.35;34.67;;;;;;;-1.05;82.77;98121.95;2253292;78;21351;-63
2021/01/21 00:35:25;;;;;;;74.07;32.58;;;;;;;-1.06;82.66;98124.12;2252331;78;21276;-63
2021/01/21 00:38:26;;;;;;;75.85;32.05;;;;;;;-1.06;83.10;98122.83;2283270;77;21167;-64
2021/01/21 00:41:27;;;;;;;81.63;33.55;;;;;;;-1.07;82.76;98122.41;2253681;77;21261;-64
2021/01/21 00:44:29;;;;;;;82.72;33.15;;;;;;;-1.09;82.94;98116.48;2263445;77;21265;-64
2021/01/21 00:47:30;;;;;;;84.10;34.33;;;;;;;-1.11;82.96;98121.25;2280566;77;21290;-64
2021/01/21 00:50:31;;;;;;;81.32;34.38;;;;;;;-1.17;82.77;98117.10;2264229;77;21592;-65
2021/01/21 00:53:32;;;;;;;77.90;33.02;;;;;;;-1.17;83.07;98110.67;2276941;77;21296;-64
2021/01/21 00:56:33;;;;;;;76.25;32.23;;;;;;;-1.19;82.97;98118.02;2269587;77;21272;-66
2021/01/21 00:59:35;;;;;;;76.92;32.75;;;;;;;-1.20;82.84;98121.50;2254614;77;21296;-64
2021/01/21 01:02:36;;;;;;;77.90;31.80;;;;;;;-1.22;82.89;98124.11;2270764;78;21265;-64
2021/01/21 01:05:37;;;;;;;81.40;32.58;;;;;;;-1.24;82.91;98122.83;2253266;78;21712;-63
2021/01/21 01:08:38;;;;;;;85.20;34.18;;;;;;;-1.27;82.89;98121.62;2253328;78;21257;-64
2021/01/21 01:11:39;;;;;;;78.37;30.72;;;;;;;-1.27;82.87;98122.08;2263208;77;21265;-64
2021/01/21 01:14:41;;;;;;;78.75;33.38;;;;;;;-1.33;83.00;98113.23;2264572;78;21281;-65
2021/01/21 01:17:42;;;;;;;84.32;34.45;;;;;;;-1.35;82.99;98118.84;2277331;77;21160;-63
2021/01/21 01:20:43;;;;;;;80.20;31.95;;;;;;;-1.36;83.07;98118.00;2261934;78;21187;-67
2021/01/21 01:23:44;;;;;;;70.65;30.27;;;;;;;-1.35;82.95;98111.98;2277745;77;21252;-66
2021/01/21 01:26:45;;;;;;;73.55;29.95;;;;;;;-1.37;83.05;98112.89;2264681;78;21278;-65
2021/01/21 01:29:47;;;;;;;74.32;31.68;;;;;;;-1.38;83.03;98109.45;2269821;78;21274;-63
2021/01/21 01:32:48;;;;;;;76.70;32.17;;;;;;;-1.40;83.07;98104.80;2263269;77;21689;-65
2021/01/21 01:35:49;;;;;;;72.82;31.20;;;;;;;-1.42;83.05;98102.72;2260415;77;21281;-66
2021/01/21 01:38:50;;;;;;;73.95;29.65;;;;;;;-1.42;83.08;98100.98;2267685;78;21258;-63
2021/01/21 01:41:51;;;;;;;68.72;28.98;;;;;;;-1.40;83.01;98101.78;2256129;78;21713;-63
2021/01/21 01:44:53;;;;;;;71.20;29.48;;;;;;;-1.45;82.93;98102.34;2278017;77;21752;-63
2021/01/21 01:47:54;;;;;;;70.35;28.27;;;;;;;-1.48;83.17;98089.56;2244502;78;21265;-63
2021/01/21 01:50:55;;;;;;;69.87;28.92;;;;;;;-1.53;83.08;98084.95;2262742;78;21724;-63
2021/01/21 01:53:56;;;;;;;67.55;27.93;;;;;;;-1.53;83.23;98085.41;2268623;77;21709;-64
2021/01/21 01:56:57;;;;;;;74.07;29.15;;;;;;;-1.53;83.25;98081.55;2244321;78;21288;-62
2021/01/21 01:59:58;;;;;;;66.87;26.73;;;;;;;-1.53;83.14;98078.98;2244600;78;21269;-64
2021/01/21 02:03:00;;;;;;;64.70;27.65;;;;;;;-1.59;83.22;98073.54;2261086;77;21290;-64
2021/01/21 02:06:01;;;;;;;61.75;26.73;;;;;;;-1.60;83.29;98076.53;2275489;77;21721;-63
2021/01/21 02:09:02;;;;;;;68.95;28.05;;;;;;;-1.60;83.30;98069.27;2254505;78;21597;-63
2021/01/21 02:12:03;;;;;;;67.30;27.77;;;;;;;-1.62;83.33;98081.33;2262373;78;21285;-63
2021/01/21 02:15:04;;;;;;;67.87;27.07;;;;;;;-1.64;83.39;98090.38;2274292;77;21265;-63
2021/01/21 02:18:05;;;;;;;65.47;27.13;;;;;;;-1.64;83.25;98090.80;2255059;78;21256;-63
2021/01/21 02:21:07;;;;;;;66.87;28.17;;;;;;;-1.64;83.19;98089.09;2276424;77;21590;-63
2021/01/21 02:24:08;;;;;;;62.62;27.07;;;;;;;-1.68;83.33;98082.73;2252916;78;21284;-63
2021/01/21 02:27:09;;;;;;;66.70;25.82;;;;;;;-1.66;83.40;98087.42;2260956;77;21265;-63
2021/01/21 02:30:10;;;;;;;66.50;27.15;;;;;;;-1.68;83.40;98087.88;2253236;78;21327;-64
2021/01/21 02:33:11;;;;;;;62.25;26.90;;;;;;;-1.70;83.39;98087.09;2265102;78;21284;-64
2021/01/21 02:36:12;;;;;;;66.67;26.52;;;;;;;-1.72;83.36;98081.12;2266346;77;21328;-64
2021/01/21 02:39:13;;;;;;;64.30;25.43;;;;;;;-1.73;83.49;98085.88;2244615;78;21245;-64
2021/01/21 02:42:15;;;;;;;64.07;26.93;;;;;;;-1.72;83.37;98083.69;2250556;78;21728;-64
2021/01/21 02:45:16;;;;;;;63.80;27.10;;;;;;;-1.74;83.33;98081.16;2270078;78;21281;-63
2021/01/21 02:48:17;;;;;;;61.13;25.55;;;;;;;-1.75;83.32;98082.06;2270904;78;21286;-64
2021/01/21 02:51:18;;;;;;;64.72;26.40;;;;;;;-1.75;83.31;98086.75;2260522;78;21266;-64
2021/01/21 02:54:19;;;;;;;58.95;25.30;;;;;;;-1.69;83.37;98082.36;2275272;77;21268;-63
2021/01/21 02:57:21;;;;;;;63.87;26.95;;;;;;;-1.72;83.22;98086.26;2261612;77;21285;-64
2021/01/21 03:00:22;;;;;;;61.50;28.47;;;;;;;-1.71;83.36;98085.39;2264994;77;21284;-64
2021/01/21 03:03:24;;;;;;;63.98;27.02;;;;;;;-1.77;83.29;98082.52;2256585;78;21285;-64
2021/01/21 03:06:26;;;;;;;62.13;27.25;;;;;;;-1.83;83.33;98086.52;2276898;77;21757;-65
2021/01/21 03:09:28;;;;;;;65.15;26.37;;;;;;;-1.86;83.37;98087.44;2239162;78;21289;-64
2021/01/21 03:12:29;;;;;;;60.55;25.08;;;;;;;-1.88;83.48;98087.05;2252968;77;21708;-66
2021/01/21 03:15:30;;;;;;;62.62;26.62;;;;;;;-1.90;83.46;98084.97;2265104;78;21790;-65
2021/01/21 03:18:31;;;;;;;62.15;27.07;;;;;;;-1.89;83.48;98077.67;2282467;77;21285;-63
2021/01/21 03:21:32;;;;;;;59.00;26.80;;;;;;;-1.91;83.38;98076.42;2259061;78;21269;-63
2021/01/21 03:24:33;;;;;;;59.53;26.00;;;;;;;-1.96;83.30;98085.50;2266540;77;21292;-63
2021/01/21 03:27:35;;;;;;;55.13;23.83;;;;;;;-1.96;83.62;98088.08;2251095;77;21269;-64
2021/01/21 03:30:36;;;;;;;64.37;26.97;;;;;;;-1.90;83.59;98088.37;2258522;78;21719;-64
2021/01/21 03:33:37;;;;;;;59.05;24.82;;;;;;;-1.97;83.28;98090.26;2267250;77;21280;-63
2021/01/21 03:36:39;;;;;;;57.67;23.25;;;;;;;-2.03;83.20;98086.97;2228486;78;21708;-64
2021/01/21 03:39:40;;;;;;;54.83;23.47;;;;;;;-2.09;83.37;98090.52;2259317;78;21294;-63
2021/01/21 03:42:42;;;;;;;52.13;22.43;;;;;;;-2.15;83.50;98090.20;2244686;78;21578;-65
2021/01/21 03:45:43;;;;;;;53.52;23.57;;;;;;;-2.17;83.70;98083.41;2272537;77;21298;-64
2021/01/21 03:48:44;;;;;;;58.45;24.57;;;;;;;-2.20;83.82;98090.73;2266425;77;21711;-65
2021/01/21 03:51:46;;;;;;;61.30;24.92;;;;;;;-2.23;83.79;98083.09;2253366;78;21269;-65
2021/01/21 03:54:47;;;;;;;56.80;24.07;;;;;;;-2.23;83.76;98075.39;2264390;77;21270;-64
2021/01/21 03:57:48;;;;;;;56.05;25.35;;;;;;;-2.26;83.71;98081.88;2255214;78;21254;-63
2021/01/21 04:00:49;;;;;;;56.80;26.20;;;;;;;-2.26;84.05;98088.30;2266451;77;21716;-64
2021/01/21 04:03:50;;;;;;;62.10;25.55;;;;;;;-2.29;83.88;98092.22;2255301;78;21296;-64
2021/01/21 04:06:51;;;;;;;54.75;24.60;;;;;;;-2.29;84.04;98090.48;2268247;77;21273;-67
2021/01/21 04:09:53;;;;;;;58.95;24.85;;;;;;;-2.31;83.87;98086.28;2263397;77;21410;-64
2021/01/21 04:12:54;;;;;;;61.90;27.35;;;;;;;-2.35;84.01;98086.77;2276456;77;21265;-66
2021/01/21 04:15:55;;;;;;;56.55;24.87;;;;;;;-2.37;84.15;98087.67;2270064;78;21273;-66
2021/01/21 04:18:56;;;;;;;56.42;24.20;;;;;;;-2.36;84.15;98072.23;2262334;78;21740;-64
2021/01/21 04:21:57;;;;;;;59.53;24.92;;;;;;;-2.36;84.16;98070.94;2244693;78;21297;-67
2021/01/21 04:24:59;;;;;;;60.40;25.25;;;;;;;-2.35;84.19;98076.95;2250886;78;21261;-64
2021/01/21 04:28:00;;;;;;;58.63;24.52;;;;;;;-2.37;84.14;98073.13;2261116;78;21261;-66
2021/01/21 04:31:01;;;;;;;59.42;26.10;;;;;;;-2.38;84.25;98070.14;2272379;77;21724;-64
2021/01/21 04:34:02;;;;;;;58.05;24.37;;;;;;;-2.39;84.23;98066.33;2253041;78;21272;-67
2021/01/21 04:37:04;;;;;;;60.23;25.82;;;;;;;-2.38;84.31;98061.60;2244764;78;21272;-66
2021/01/21 04:40:08;;;;;;;58.98;25.80;;;;;;;-2.36;84.37;98061.12;2259467;77;21284;-66
2021/01/21 04:43:09;;;;;;;63.70;25.90;;;;;;;-2.34;84.22;98058.06;2260400;77;21134;-67
2021/01/21 04:46:11;;;;;;;57.50;23.85;;;;;;;-2.37;84.23;98057.72;2266448;77;21265;-68
2021/01/21 04:49:12;;;;;;;63.20;25.95;;;;;;;-2.39;84.46;98055.59;2259460;78;21133;-68
2021/01/21 04:52:13;;;;;;;62.20;26.20;;;;;;;-2.35;84.40;98055.11;2256125;78;21693;-68
2021/01/21 04:55:15;;;;;;;66.25;28.05;;;;;;;-2.35;84.31;98060.25;2267596;77;21118;-64
2021/01/21 04:58:16;;;;;;;65.50;28.67;;;;;;;-2.41;84.43;98056.50;2259200;78;21280;-63
2021/01/21 05:01:18;;;;;;;67.05;26.95;;;;;;;-2.39;84.61;98058.17;2271542;77;21591;-63
2021/01/21 05:04:19;;;;;;;59.23;25.43;;;;;;;-2.37;84.54;98053.86;2279836;78;21828;-65
2021/01/21 05:07:20;;;;;;;62.62;27.65;;;;;;;-2.37;84.44;98057.72;2261875;77;21736;-64
2021/01/21 05:10:21;;;;;;;65.50;27.10;;;;;;;-2.37;84.52;98061.98;2256189;77;21280;-63
2021/01/21 05:13:23;;;;;;;63.83;25.80;;;;;;;-2.39;84.63;98068.89;2278571;77;21135;-63
2021/01/21 05:16:24;;;;;;;60.58;27.10;;;;;;;-2.40;84.62;98059.04;2260715;77;21261;-63
2021/01/21 05:19:25;;;;;;;63.73;26.93;;;;;;;-2.37;84.64;98065.84;2260009;77;21290;-63
2021/01/21 05:22:26;;;;;;;64.25;26.77;;;;;;;-2.39;84.41;98065.87;2244343;78;21264;-63
2021/01/21 05:25:27;;;;;;;64.60;27.35;;;;;;;-2.40;84.44;98062.89;2258987;78;21257;-64
2021/01/21 05:28:29;;;;;;;70.37;27.67;;;;;;;-2.44;84.37;98062.12;2244413;78;21697;-66
2021/01/21 05:31:30;;;;;;;66.20;26.95;;;;;;;-2.48;84.44;98067.36;2258894;77;21273;-63
2021/01/21 05:34:31;;;;;;;63.52;27.62;;;;;;;-2.49;84.63;98063.09;2267857;77;21139;-64
2021/01/21 05:37:32;;;;;;;64.32;24.87;;;;;;;-2.52;84.44;98060.59;2260503;77;21151;-63
2021/01/21 05:40:33;;;;;;;63.25;25.70;;;;;;;-2.50;84.60;98067.81;2246360;78;21284;-63
2021/01/21 05:43:35;;;;;;;64.70;25.43;;;;;;;-2.50;84.63;98065.25;2263938;77;21139;-64
2021/01/21 05:46:36;;;;;;;62.10;26.23;;;;;;;-2.53;84.63;98060.18;2271179;77;21112;-63
2021/01/21 05:49:37;;;;;;;66.25;28.02;;;;;;;-2.56;84.57;98058.52;2253031;78;21265;-66
2021/01/21 05:52:38;;;;;;;74.07;30.10;;;;;;;-2.58;84.51;98062.02;2251669;77;21135;-64
2021/01/21 05:55:39;;;;;;;72.70;30.55;;;;;;;-2.61;84.55;98066.31;2264543;77;21697;-64
2021/01/21 05:58:43;;;;;;;67.70;28.38;;;;;;;-2.67;84.45;98060.03;2265422;77;21296;-64
2021/01/21 06:01:44;;;;;;;68.52;30.88;;;;;;;-2.67;84.52;98060.45;2255000;77;21285;-65
2021/01/21 06:04:46;;;;;;;66.05;25.70;;;;;;;-2.71;84.50;98057.56;2265401;78;21149;-65
2021/01/21 06:07:47;;;;;;;64.05;29.20;;;;;;;-2.71;84.79;98057.56;2244571;78;21111;-67
2021/01/21 06:10:48;;;;;;;64.07;27.65;;;;;;;-2.69;85.05;98063.50;2244527;79;21099;-67
2021/01/21 06:13:51;;;;;;;67.35;26.23;;;;;;;-2.73;85.07;98058.88;2253635;78;21700;-67
2021/01/21 06:16:52;;;;;;;66.92;27.70;;;;;;;-2.71;84.93;98061.41;2262781;77;21277;-67
2021/01/21 06:19:53;;;;;;;65.67;29.07;;;;;;;-2.69;84.95;98062.21;2262960;77;21313;-65
2021/01/21 06:22:54;;;;;;;63.13;26.90;;;;;;;-2.66;84.90;98060.86;2231359;78;21253;-67
2021/01/21 06:25:55;;;;;;;64.50;27.32;;;;;;;-2.59;84.94;98062.43;2273889;77;21289;-64
2021/01/21 06:28:57;;;;;;;63.60;29.45;;;;;;;-2.55;84.99;98062.78;2267408;78;21286;-66
2021/01/21 06:31:58;;;;;;;61.02;27.75;;;;;;;-2.54;84.69;98059.34;2262369;78;21974;-66
2021/01/21 06:35:00;;;;;;;66.35;29.35;;;;;;;-2.55;84.80;98062.78;2255956;77;21142;-64
2021/01/21 06:38:01;;;;;;;71.53;29.90;;;;;;;-2.56;84.84;98069.23;2265309;78;22042;-65
2021/01/21 06:41:02;;;;;;;69.65;32.90;;;;;;;-2.56;84.84;98069.23;2233647;77;21300;-64
2021/01/21 06:44:03;;;;;;;63.27;29.33;;;;;;;-2.53;85.02;98067.47;2264013;78;21202;-63
2021/01/21 06:47:05;;;;;;;63.70;29.00;;;;;;;-2.55;84.81;98066.63;2246911;78;21158;-64
2021/01/21 06:50:06;;;;;;;77.17;36.60;;;;;;;-2.50;85.07;98070.38;2259344;78;21136;-63
2021/01/21 06:53:07;;;;;;;71.50;32.85;;;;;;;-2.37;85.13;98074.83;2262226;78;21271;-64
2021/01/21 06:56:08;;;;;;;72.42;33.60;;;;;;;-2.31;84.86;98069.59;2259384;78;21281;-64
2021/01/21 06:59:09;;;;;;;76.70;33.00;;;;;;;-2.27;84.86;98071.19;2253253;78;21293;-65
2021/01/21 07:02:10;;;;;;;80.67;33.53;;;;;;;-2.23;84.75;98074.09;2274798;77;21277;-65
2021/01/21 07:05:12;;;;;;;74.50;32.93;;;;;;;-2.17;84.73;98079.13;2250622;77;21712;-67
2021/01/21 07:08:13;;;;;;;71.07;30.62;;;;;;;-2.10;84.82;98072.98;2225875;78;21270;-63
2021/01/21 07:11:14;;;;;;;69.87;30.90;;;;;;;-2.00;84.65;98076.61;2273951;77;21265;-64
2021/01/21 07:14:15;;;;;;;65.75;30.20;;;;;;;-1.96;84.77;98066.22;2253157;78;21275;-63
2021/01/21 07:17:17;;;;;;;63.60;30.52;;;;;;;-1.83;84.74;98057.80;2266678;77;21269;-64
2021/01/21 07:20:18;;;;;;;78.05;33.28;;;;;;;-1.75;84.73;98056.34;2253386;78;21297;-64
2021/01/21 07:23:19;;;;;;;79.75;31.65;;;;;;;-1.63;84.54;98064.20;2276806;78;21721;-64
2021/01/21 07:26:20;;;;;;;87.45;34.65;;;;;;;-1.51;84.49;98059.20;2266056;77;21705;-64
2021/01/21 07:29:22;;;;;;;73.25;31.25;;;;;;;-1.44;84.39;98064.17;2268833;77;21282;-65
2021/01/21 07:32:23;;;;;;;69.60;29.18;;;;;;;-1.33;84.39;98062.60;2267790;78;21737;-64
2021/01/21 07:35:24;;;;;;;58.80;26.40;;;;;;;-1.13;84.42;98060.81;2236712;78;21142;-64
2021/01/21 07:38:25;;;;;;;62.43;27.62;;;;;;;-0.95;84.00;98053.05;2264239;78;21816;-65
2021/01/21 07:41:27;;;;;;;67.10;29.85;;;;;;;-0.81;83.77;98057.81;2237295;78;21679;-64
2021/01/21 07:44:28;;;;;;;67.80;29.87;;;;;;;-0.62;83.66;98052.98;2258107;78;21280;-64
2021/01/21 07:47:30;;;;;;;66.50;28.67;;;;;;;-0.49;83.35;98043.63;2260991;78;21163;-67
2021/01/21 07:50:33;;;;;;;56.58;27.27;;;;;;;-0.36;83.16;98044.95;2251206;78;21264;-66
2021/01/21 07:53:34;;;;;;;56.18;25.50;;;;;;;-0.19;82.98;98039.31;2253425;78;21288;-67
2021/01/21 07:56:36;;;;;;;57.80;25.60;;;;;;;-0.01;82.76;98049.06;2244385;79;21289;-65
2021/01/21 07:59:37;;;;;;;54.40;25.32;;;;;;;0.16;82.33;98042.10;2256620;77;21713;-67
2021/01/21 08:02:38;;;;;;;56.45;26.87;;;;;;;0.33;82.13;98044.16;2266081;77;21284;-65
2021/01/21 08:05:40;;;;;;;53.48;26.40;;;;;;;0.48;81.89;98040.22;2264244;77;21765;-64
2021/01/21 08:08:41;;;;;;;54.15;26.20;;;;;;;0.64;81.37;98041.02;2253127;78;21288;-68
2021/01/21 08:11:42;;;;;;;51.77;24.27;;;;;;;0.79;81.46;98037.06;2251886;77;21138;-67
2021/01/21 08:14:43;;;;;;;53.87;25.17;;;;;;;0.96;80.23;98037.35;2252798;77;21151;-67
2021/01/21 08:17:45;;;;;;;48.50;23.10;;;;;;;1.13;80.84;98038.48;2264814;77;21277;-68
2021/01/21 08:20:46;;;;;;;56.70;26.40;;;;;;;1.29;80.58;98028.45;2262043;78;21280;-67
2021/01/21 08:23:47;;;;;;;53.63;24.98;;;;;;;1.52;80.37;98027.60;2258998;78;21265;-66
2021/01/21 08:26:48;;;;;;;51.65;25.48;;;;;;;1.76;80.18;98029.72;2257794;77;21260;-67
2021/01/21 08:29:49;;;;;;;49.70;23.77;;;;;;;1.92;79.38;98033.86;2263203;77;21276;-66
2021/01/21 08:32:51;;;;;;;50.15;24.72;;;;;;;2.07;78.98;98029.39;2256324;77;21280;-65
2021/01/21 08:35:52;;;;;;;50.45;24.65;;;;;;;2.20;78.65;98022.45;2250463;78;21264;-65
2021/01/21 08:38:53;;;;;;;47.35;23.55;;;;;;;2.34;77.72;98025.75;2253085;78;21265;-64
2021/01/21 08:41:54;;;;;;;50.40;24.02;;;;;;;2.46;77.92;98024.41;2261631;77;21701;-66
2021/01/21 08:44:55;;;;;;;50.10;24.20;;;;;;;2.52;77.02;98022.88;2269187;77;21275;-65
2021/01/21 08:47:57;;;;;;;52.78;25.77;;;;;;;2.55;77.38;98011.94;2244484;77;21261;-65
2021/01/21 08:50:58;;;;;;;49.58;24.15;;;;;;;2.60;77.50;98008.71;2270275;77;21161;-64
2021/01/21 08:54:00;;;;;;;51.80;24.65;;;;;;;2.62;77.40;98013.00;2281940;77;21356;-65
2021/01/21 08:57:01;;;;;;;49.05;23.87;;;;;;;2.69;77.59;98017.84;2270243;77;21293;-64
2021/01/21 09:00:02;;;;;;;55.17;25.75;;;;;;;2.88;76.95;98021.78;2264268;77;21270;-64
2021/01/21 09:03:03;;;;;;;53.55;25.48;;;;;;;3.08;76.79;98025.28;2266393;77;21705;-65
2021/01/21 09:06:04;;;;;;;57.20;28.32;;;;;;;3.25;76.61;98029.73;2251898;77;21277;-65
2021/01/21 09:09:07;;;;;;;55.85;28.92;;;;;;;3.53;76.70;98026.73;2261754;78;21257;-64
2021/01/21 09:12:09;;;;;;;55.75;27.85;;;;;;;3.80;76.34;98023.33;2268642;78;21705;-64
2021/01/21 09:15:10;;;;;;;54.00;26.77;;;;;;;4.04;75.30;98024.84;2267707;78;21586;-65
2021/01/21 09:18:11;;;;;;;48.25;24.63;;;;;;;4.20;75.05;98020.63;2257506;78;21265;-64
2021/01/21 09:21:12;;;;;;;51.90;25.43;;;;;;;4.28;74.09;98017.22;2264981;78;21722;-65
2021/01/21 09:24:13;;;;;;;47.53;23.50;;;;;;;4.45;75.34;98016.84;2245731;78;21280;-64
2021/01/21 09:27:15;;;;;;;48.23;23.85;;;;;;;4.63;74.14;98004.72;2269572;78;21701;-65
2021/01/21 09:30:16;;;;;;;51.10;25.37;;;;;;;4.71;72.87;98006.92;2263157;78;21539;-64
2021/01/21 09:33:17;;;;;;;50.50;23.98;;;;;;;4.79;73.28;97999.12;2272763;77;21552;-65
2021/01/21 09:36:19;;;;;;;49.77;24.98;;;;;;;4.86;72.12;98000.95;2270339;77;21603;-66
2021/01/21 09:39:20;;;;;;;49.85;25.00;;;;;;;4.86;72.72;97990.56;2261082;77;21750;-67
2021/01/21 09:42:21;;;;;;;48.13;24.10;;;;;;;4.94;73.52;97992.76;2261877;78;21736;-68
2021/01/21 09:45:22;;;;;;;51.15;25.37;;;;;;;5.10;72.65;97987.60;2261652;77;21269;-68
2021/01/21 09:48:24;;;;;;;51.40;24.23;;;;;;;5.20;71.99;97983.59;2260610;78;21718;-68
2021/01/21 09:51:25;;;;;;;55.25;26.68;;;;;;;5.26;72.08;97970.73;2270413;77;21269;-65
2021/01/21 09:54:26;;;;;;;51.10;25.23;;;;;;;5.32;71.37;97966.53;2263414;77;21273;-65
2021/01/21 09:57:27;;;;;;;51.88;25.40;;;;;;;5.36;71.27;97964.15;2278378;77;21345;-67
2021/01/21 10:00:28;;;;;;;58.70;27.55;;;;;;;5.53;71.85;97958.87;2261405;78;21278;-67
2021/01/21 10:03:29;;;;;;;50.38;24.45;;;;;;;5.69;71.48;97961.95;2263636;77;21337;-68
2021/01/21 10:06:31;;;;;;;51.23;25.08;;;;;;;5.84;70.76;97966.28;2253430;78;21661;-64
2021/01/21 10:09:32;;;;;;;47.60;23.55;;;;;;;5.90;70.16;97962.50;2277292;77;21343;-64
2021/01/21 10:12:34;;;;;;;48.20;23.42;;;;;;;5.97;70.32;97953.91;2273115;78;21605;-64
2021/01/21 10:15:35;;;;;;;47.80;24.55;;;;;;;5.90;70.38;97946.45;2269675;77;21297;-64
2021/01/21 10:18:36;;;;;;;53.15;25.55;;;;;;;6.00;70.41;97950.68;2254616;77;21107;-64
2021/01/21 10:21:38;;;;;;;44.93;22.77;;;;;;;6.17;70.40;97960.62;2250517;78;21146;-65
2021/01/21 10:24:39;;;;;;;46.63;22.25;;;;;;;6.27;69.75;97960.94;2267796;78;21266;-67
2021/01/21 10:27:41;;;;;;;48.33;23.42;;;;;;;6.37;69.31;97951.67;2257969;77;21324;-68
2021/01/21 10:30:42;;;;;;;48.83;23.32;;;;;;;6.49;68.52;97950.94;2244649;78;21141;-69
2021/01/21 10:33:43;;;;;;;49.70;23.10;;;;;;;6.63;69.03;97948.01;2271993;77;21147;-68
2021/01/21 10:36:44;;;;;;;50.10;24.40;;;;;;;6.81;66.89;97942.16;2268083;77;21270;-69
2021/01/21 10:39:46;;;;;;;49.95;25.52;;;;;;;6.99;68.81;97945.44;2269150;77;21146;-68
2021/01/21 10:42:47;;;;;;;51.33;23.98;;;;;;;7.11;67.71;97938.16;2270380;77;21265;-64
2021/01/21 10:45:48;;;;;;;47.38;24.07;;;;;;;7.29;67.66;97927.91;2253176;78;21265;-65
2021/01/21 10:48:49;;;;;;;44.55;22.48;;;;;;;7.50;68.05;97936.66;2222932;78;21256;-68
2021/01/21 10:51:50;;;;;;;50.78;23.77;;;;;;;7.68;66.25;97928.11;2264477;78;21760;-65
2021/01/21 10:54:52;;;;;;;45.15;22.37;;;;;;;7.73;66.18;97930.42;2250581;78;21688;-68
2021/01/21 10:57:54;;;;;;;45.10;22.15;;;;;;;7.78;66.42;97932.29;2272357;77;21147;-66
2021/01/21 11:00:55;;;;;;;43.30;22.15;;;;;;;7.87;65.95;97932.98;2253519;78;21723;-66
2021/01/21 11:03:56;;;;;;;47.38;24.55;;;;;;;7.87;65.51;97930.86;2253204;78;21269;-64
2021/01/21 11:06:57;;;;;;;44.85;23.87;;;;;;;7.78;63.40;97943.55;2219848;78;21705;-67
2021/01/21 11:09:59;;;;;;;47.15;23.35;;;;;;;7.72;65.27;97942.65;2259077;78;21328;-66
2021/01/21 11:13:00;;;;;;;49.77;25.05;;;;;;;7.81;66.16;97938.61;2265305;78;21134;-66
2021/01/21 11:16:01;;;;;;;50.73;26.42;;;;;;;7.92;65.80;97936.16;2244455;78;21740;-65
2021/01/21 11:19:02;;;;;;;50.92;26.25;;;;;;;8.07;66.29;97932.19;2241434;77;21587;-68
2021/01/21 11:22:04;;;;;;;44.30;23.07;;;;;;;8.22;66.12;97934.28;2225991;77;21285;-69
2021/01/21 11:25:06;;;;;;;46.28;24.05;;;;;;;8.33;64.81;97924.80;2258714;78;21142;-65
2021/01/21 11:28:08;;;;;;;;;;;;;;;8.45;64.57;97928.87;2278408;77;21736;-65
2021/01/21 11:31:10;;;;;;;45.43;23.10;;;;;;;8.51;65.12;97924.53;2261013;78;20215;-65
2021/01/21 11:34:12;;;;;;;44.00;23.45;;;;;;;8.65;64.89;97921.83;2270038;77;21280;-64
2021/01/21 11:37:13;;;;;;;43.50;22.10;;;;;;;8.79;64.30;97922.66;2257398;78;21281;-65
2021/01/21 11:40:14;;;;;;;44.35;22.77;;;;;;;8.96;64.67;97918.90;2269355;78;21293;-65
2021/01/21 11:43:15;;;;;;;46.02;23.10;;;;;;;9.10;63.99;97917.95;2259168;78;21274;-66
2021/01/21 11:46:16;;;;;;;46.33;23.05;;;;;;;9.16;62.23;97912.28;2259162;78;21269;-65
2021/01/21 11:49:17;;;;;;;43.70;22.58;;;;;;;9.23;63.67;97906.98;2273220;78;21706;-64
2021/01/21 11:52:18;;;;;;;45.50;22.15;;;;;;;9.31;63.58;97905.98;2270672;78;21277;-64
2021/01/21 11:55:19;;;;;;;45.05;21.87;;;;;;;9.47;61.94;97903.11;2273600;77;21281;-66
2021/01/21 11:58:21;;;;;;;41.70;21.07;;;;;;;9.45;61.07;97898.48;2253351;78;21260;-68
2021/01/21 12:01:22;;;;;;;42.53;21.65;;;;;;;9.46;62.33;97895.38;2266445;77;21723;-66
2021/01/21 12:04:23;;;;;;;41.05;20.02;;;;;;;9.56;62.76;97892.45;2244659;78;21704;-64
2021/01/21 12:07:24;;;;;;;43.08;20.85;;;;;;;9.71;61.73;97890.50;2265070;77;21258;-65
2021/01/21 12:10:25;;;;;;;41.20;19.67;;;;;;;9.82;62.22;97884.02;2260576;78;21719;-67
2021/01/21 12:13:26;;;;;;;40.92;21.17;;;;;;;9.92;60.73;97872.41;2259260;78;21697;-63
2021/01/21 12:16:29;;;;;;;39.18;18.87;;;;;;;10.02;60.78;97863.39;2261972;78;21709;-66
2021/01/21 12:19:30;;;;;;;39.80;19.92;;;;;;;10.10;60.59;97868.91;2250599;78;21265;-64
2021/01/21 12:22:31;;;;;;;40.00;20.02;;;;;;;10.19;60.94;97859.04;2251926;77;21324;-64
2021/01/21 12:25:34;;;;;;;37.95;17.12;;;;;;;10.21;60.20;97856.30;2263256;77;21275;-65
2021/01/21 12:28:36;;;;;;;38.63;19.00;;;;;;;10.18;60.04;97854.73;2227045;77;21131;-64
2021/01/21 12:31:37;;;;;;;37.28;17.77;;;;;;;10.13;59.27;97850.79;2261468;78;21697;-64
2021/01/21 12:34:38;;;;;;;36.90;17.85;;;;;;;10.03;59.23;97846.25;2258397;78;21268;-64
2021/01/21 12:37:39;;;;;;;37.40;18.42;;;;;;;10.03;59.75;97847.56;2259675;78;21282;-64
2021/01/21 12:40:41;;;;;;;39.48;17.95;;;;;;;10.04;59.53;97845.31;2246323;78;21272;-64
2021/01/21 12:43:42;;;;;;;38.13;18.03;;;;;;;9.99;59.72;97854.45;2267500;77;21146;-64
2021/01/21 12:46:43;;;;;;;39.08;18.98;;;;;;;9.97;58.80;97853.72;2273609;78;21159;-64
2021/01/21 12:49:45;;;;;;;40.77;18.77;;;;;;;9.86;59.15;97855.35;2281702;77;21139;-63
2021/01/21 12:52:46;;;;;;;38.48;18.10;;;;;;;9.73;59.66;97856.38;2272859;77;21278;-64
2021/01/21 12:55:47;;;;;;;38.65;18.75;;;;;;;9.73;59.46;97851.14;2283815;77;21349;-64
2021/01/21 12:58:48;;;;;;;39.92;18.67;;;;;;;9.71;59.65;97856.02;2255654;77;21717;-65
2021/01/21 13:01:50;;;;;;;39.70;19.37;;;;;;;9.66;59.13;97856.81;2240456;78;21168;-64
2021/01/21 13:04:52;;;;;;;41.08;19.25;;;;;;;9.57;58.51;97861.41;2267745;78;21265;-64
2021/01/21 13:07:53;;;;;;;40.70;18.52;;;;;;;9.47;58.45;97857.80;2269365;77;21705;-66
2021/01/21 13:10:54;;;;;;;42.97;19.57;;;;;;;9.35;58.62;97857.72;2281989;77;21269;-65
2021/01/21 13:13:56;;;;;;;40.25;19.55;;;;;;;9.24;59.42;97856.80;2331124;76;21170;-65
2021/01/21 13:16:57;;;;;;;43.42;20.12;;;;;;;9.17;59.59;97862.47;2266837;77;21252;-66
2021/01/21 13:19:58;;;;;;;38.65;18.90;;;;;;;9.17;59.70;97863.77;2281185;77;21761;-64
2021/01/21 13:23:00;;;;;;;41.23;19.30;;;;;;;9.10;59.34;97866.94;2325052;76;21274;-64
2021/01/21 13:26:02;;;;;;;39.25;19.02;;;;;;;9.03;59.81;97873.06;2328639;76;21578;-67
2021/01/21 13:29:03;;;;;;;38.78;19.73;;;;;;;8.99;59.93;97875.08;2325449;76;21725;-64
2021/01/21 13:32:04;;;;;;;42.83;21.33;;;;;;;8.92;59.78;97874.28;2326491;76;21130;-64
2021/01/21 13:35:05;;;;;;;41.02;20.97;;;;;;;8.91;59.28;97866.91;2322841;76;21598;-64
2021/01/21 13:38:06;;;;;;;42.75;21.20;;;;;;;8.84;59.65;97875.65;2323893;76;21305;-64
2021/01/21 13:41:08;;;;;;;39.80;19.05;;;;;;;8.78;59.81;97866.92;2323152;76;21269;-63
2021/01/21 13:44:09;;;;;;;42.38;19.87;;;;;;;8.74;59.15;97862.02;2324102;76;21266;-64
2021/01/21 13:47:10;;;;;;;44.18;20.32;;;;;;;8.58;58.94;97862.23;2281502;77;21743;-65
2021/01/21 13:50:13;;;;;;;42.90;20.08;;;;;;;8.48;59.42;97860.23;2321530;76;21581;-63
2021/01/21 13:53:14;;;;;;;42.55;21.02;;;;;;;8.36;60.23;97861.05;2315218;76;21127;-64
2021/01/21 13:56:16;;;;;;;43.55;20.65;;;;;;;8.29;60.43;97863.70;2328196;76;21590;-64
2021/01/21 13:59:17;;;;;;;44.75;21.97;;;;;;;8.14;60.33;97862.94;2325208;76;21591;-64